Aviation Digital Data Service (ADDS)

Output produced by METARs form (1809 UTC 14 August 2018)
found at http://www.aviationweather.gov/adds/metars/
 
HLLB 141800Z 36012KT 9999 FEW020 27/22 Q1014
TAF HLLB 141700Z 1418/1518 35015KT 8000 SCT030 
     BECMG 1420/1422 VRB02K 
     BECMG 0502/0504 03010KT
       
TAF HLTD 140500Z 1406/1506 06012KT 8000 FEW045 SCT100 
     TEMPO 1406/1416 6000 RA SCT040 SCT080 
     BECMG 1418/1420 VRB02KT 
     BECMG 1503/1505 04010KT
       
TAF HLGT 140500Z 1406/1506 VRB02KT CAVOK 
     BECMG 1416/1418 03010KT 
     BECMG 1421/1423 VRB02KT
       
TAF HLKF 141100Z 1412/1512 33012KT CAVOK 
     BECMG 0502/1504 03010KT